Time;durP1;ratioP1;P1;durP2;ratioP2;P2;SDS_P1;SDS_P2;PMS_P1;PMS_P2;Temp;Humidity;BMP_temperature;BMP_pressure;BME280_temperature;BME280_humidity;BME280_pressure;Samples;Min_cycle;Max_cycle;Signal;HPM_P1;HPM_P2
2021/09/01 00:00:41;;;;;;;2.92;1.98;;;16.30;69.30;;;;;;4981783;28;97168;-51
2021/09/01 00:03:15;;;;;;;5.97;2.28;;;16.30;70.30;;;;;;4981966;28;96106;-52
2021/09/01 00:05:46;;;;;;;2.72;1.83;;;16.40;69.50;;;;;;4982108;28;95701;-53
2021/09/01 00:08:18;;;;;;;2.40;1.60;;;16.50;70.10;;;;;;4984741;28;95288;-51
2021/09/01 00:10:49;;;;;;;4.03;1.98;;;16.50;69.80;;;;;;4981428;28;95990;-53
2021/09/01 00:13:20;;;;;;;4.50;2.37;;;16.60;68.90;;;;;;4978037;28;96034;-51
2021/09/01 00:15:52;;;;;;;3.08;2.03;;;16.60;70.70;;;;;;4961580;28;95395;-51
2021/09/01 00:18:23;;;;;;;3.80;2.28;;;16.60;70.20;;;;;;4965717;28;95980;-53
2021/09/01 00:20:54;;;;;;;3.90;2.42;;;16.70;70.20;;;;;;4982263;28;95786;-51
2021/09/01 00:23:25;;;;;;;4.22;2.00;;;16.70;69.90;;;;;;4981397;28;96952;-52
2021/09/01 00:25:55;;;;;;;4.45;2.55;;;16.80;69.50;;;;;;4982692;28;95882;-53
2021/09/01 00:28:26;;;;;;;3.50;2.60;;;16.90;69.10;;;;;;4961714;28;95838;-57
2021/09/01 00:30:57;;;;;;;2.92;2.40;;;16.90;69.10;;;;;;4975039;28;97628;-57
2021/09/01 00:33:28;;;;;;;;;;;16.90;69.00;;;;;;4983199;28;96618;-50
2021/09/01 00:35:58;;;;;;;5.35;2.03;;;17.00;69.00;;;;;;4984775;28;95914;-54
2021/09/01 00:38:28;;;;;;;5.07;2.25;;;17.00;69.00;;;;;;4982723;28;95694;-56
2021/09/01 00:40:59;;;;;;;2.15;1.75;;;17.10;68.40;;;;;;4964438;28;96459;-51
2021/09/01 00:43:30;;;;;;;3.83;2.03;;;17.10;68.30;;;;;;4983643;28;95907;-55
2021/09/01 00:46:02;;;;;;;5.47;2.03;;;17.10;68.20;;;;;;4975046;28;98019;-56
2021/09/01 00:48:32;;;;;;;2.75;2.00;;;17.30;67.10;;;;;;4981324;28;95800;-55
2021/09/01 00:51:04;;;;;;;4.05;2.17;;;17.20;67.60;;;;;;4981482;28;96418;-56
2021/09/01 00:53:44;;;;;;;5.28;2.30;;;17.30;66.80;;;;;;4982598;28;96640;-56
2021/09/01 00:56:21;;;;;;;4.13;1.95;;;17.40;67.70;;;;;;4966057;28;95884;-55
2021/09/01 00:58:53;;;;;;;2.80;1.90;;;17.50;66.80;;;;;;4980197;28;95785;-52
2021/09/01 01:01:24;;;;;;;2.67;2.00;;;17.50;66.60;;;;;;4973266;28;96019;-49
2021/09/01 01:03:56;;;;;;;2.58;1.90;;;17.60;67.10;;;;;;4960026;28;98097;-50
2021/09/01 01:06:30;;;;;;;;;;;17.60;66.80;;;;;;4964496;28;95902;-54
2021/09/01 01:09:01;;;;;;;2.65;1.90;;;17.70;66.10;;;;;;4965602;28;96186;-51
2021/09/01 01:11:31;;;;;;;3.30;1.90;;;17.80;66.70;;;;;;4980725;28;96423;-51
2021/09/01 01:14:03;;;;;;;4.35;2.03;;;17.80;66.50;;;;;;4983339;28;95750;-52
2021/09/01 01:16:33;;;;;;;;;;;17.90;66.20;;;;;;4979396;28;96048;-54
2021/09/01 01:19:04;;;;;;;2.78;1.70;;;17.90;66.30;;;;;;4978285;28;95240;-56
2021/09/01 01:21:34;;;;;;;3.83;1.65;;;17.90;66.50;;;;;;4979664;28;95831;-53
2021/09/01 01:24:05;;;;;;;2.88;1.70;;;17.90;66.20;;;;;;4980760;28;95753;-51
2021/09/01 01:26:36;;;;;;;1.98;1.70;;;18.00;66.20;;;;;;4981183;28;96703;-56
2021/09/01 01:29:10;;;;;;;3.20;1.55;;;18.10;65.90;;;;;;4981965;28;95375;-58
2021/09/01 01:31:41;;;;;;;4.88;1.70;;;18.20;63.70;;;;;;4977395;28;95980;-57
2021/09/01 01:34:13;;;;;;;;;;;18.30;63.90;;;;;;4963234;28;95704;-57
2021/09/01 01:36:43;;;;;;;3.42;1.63;;;18.40;64.20;;;;;;4977568;28;95632;-56
2021/09/01 01:39:13;;;;;;;3.63;1.88;;;18.50;63.00;;;;;;4980739;28;95541;-58
2021/09/01 01:41:43;;;;;;;4.13;2.00;;;18.50;63.80;;;;;;4980086;28;96104;-58
2021/09/01 01:44:15;;;;;;;2.10;1.90;;;18.70;62.80;;;;;;4981638;28;96356;-59
2021/09/01 01:46:45;;;;;;;1.90;1.65;;;18.70;62.90;;;;;;4977225;28;95866;-57
2021/09/01 01:49:17;;;;;;;2.80;1.70;;;18.80;61.80;;;;;;4966719;28;96138;-56
2021/09/01 01:51:49;;;;;;;3.28;1.90;;;18.90;62.00;;;;;;4977905;28;95867;-50
2021/09/01 01:55:44;;;;;;;6.85;2.10;;;18.90;62.30;;;;;;5002095;27;95933;-61
2021/09/01 01:58:18;;;;;;;3.58;1.95;;;18.90;62.70;;;;;;4993727;28;96277;-63
2021/09/01 02:00:50;;;;;;;1.92;1.75;;;18.90;63.00;;;;;;4982213;27;95848;-71
2021/09/01 02:03:20;;;;;;;2.08;1.88;;;19.00;62.80;;;;;;4928883;28;96805;-69
2021/09/01 02:05:52;;;;;;;2.53;2.05;;;19.10;62.70;;;;;;4939595;28;95665;-68
2021/09/01 02:08:25;;;;;;;2.05;1.85;;;19.20;60.90;;;;;;4935126;28;96101;-67
2021/09/01 02:10:55;;;;;;;1.67;1.58;;;19.30;60.40;;;;;;4934496;28;95984;-68
2021/09/01 02:13:25;;;;;;;3.58;1.80;;;19.30;61.50;;;;;;4944190;28;95863;-66
2021/09/01 02:15:55;;;;;;;2.67;2.03;;;19.40;61.90;;;;;;4936908;28;96523;-66
2021/09/01 02:18:26;;;;;;;2.65;1.60;;;19.40;61.90;;;;;;4942030;28;95476;-66
2021/09/01 02:20:57;;;;;;;2.50;1.67;;;19.40;60.00;;;;;;4940331;28;95957;-67
2021/09/01 02:23:26;;;;;;;2.93;2.00;;;19.50;61.20;;;;;;4935053;28;96013;-67
2021/09/01 02:25:56;;;;;;;2.50;2.22;;;19.60;61.10;;;;;;4932291;28;96073;-68
2021/09/01 02:28:26;;;;;;;3.03;1.83;;;19.60;61.40;;;;;;4936117;28;95869;-63
2021/09/01 02:30:58;;;;;;;;;;;19.70;61.70;;;;;;4931403;28;95986;-60
2021/09/01 02:33:29;;;;;;;1.93;1.73;;;19.70;61.60;;;;;;4932233;28;95846;-60
2021/09/01 02:35:59;;;;;;;3.30;1.50;;;19.70;61.90;;;;;;4937788;28;96463;-60
2021/09/01 02:38:30;;;;;;;2.03;1.83;;;19.70;61.10;;;;;;4938427;28;96456;-61
2021/09/01 02:41:01;;;;;;;;;;;19.80;61.00;;;;;;4936812;28;95775;-67
2021/09/01 02:43:32;;;;;;;1.33;1.23;;;19.90;61.50;;;;;;4937911;28;95861;-67
2021/09/01 02:46:04;;;;;;;2.83;1.65;;;20.00;61.50;;;;;;4935806;28;96476;-62
2021/09/01 02:48:34;;;;;;;2.03;1.40;;;20.20;61.70;;;;;;4941022;28;96565;-60
2021/09/01 02:51:05;;;;;;;2.13;1.35;;;20.30;61.50;;;;;;4941430;28;96147;-62
2021/09/01 02:53:37;;;;;;;2.00;1.25;;;20.50;61.20;;;;;;4944138;28;96579;-66
2021/09/01 02:56:07;;;;;;;;;;;20.70;60.80;;;;;;4943092;28;95377;-66
2021/09/01 02:58:38;;;;;;;1.27;1.10;;;20.90;61.10;;;;;;4934479;28;96081;-63
2021/09/01 03:01:09;;;;;;;3.50;1.50;;;21.00;60.10;;;;;;4927620;28;97959;-67
2021/09/01 03:03:40;;;;;;;1.38;1.27;;;21.20;59.80;;;;;;4941185;28;96414;-63
2021/09/01 03:06:12;;;;;;;1.20;1.10;;;21.40;59.50;;;;;;4932002;28;95899;-61
2021/09/01 03:08:43;;;;;;;1.42;1.27;;;21.60;59.10;;;;;;4925937;28;95883;-62
2021/09/01 03:11:13;;;;;;;1.48;1.35;;;21.70;57.60;;;;;;4924465;28;95990;-61
2021/09/01 03:13:43;;;;;;;3.22;1.48;;;21.90;58.70;;;;;;4925147;28;96460;-61
2021/09/01 03:16:13;;;;;;;1.50;1.30;;;22.10;57.90;;;;;;4913575;28;97285;-65
2021/09/01 03:18:45;;;;;;;2.33;1.30;;;22.20;56.60;;;;;;4926110;28;96433;-63
2021/09/01 03:21:15;;;;;;;1.40;1.30;;;22.30;56.90;;;;;;4927880;28;95718;-61
2021/09/01 03:23:45;;;;;;;1.52;1.40;;;22.50;56.90;;;;;;4923093;28;95936;-62
2021/09/01 03:26:15;;;;;;;2.70;1.15;;;22.60;56.50;;;;;;4925612;28;96685;-60
2021/09/01 03:28:45;;;;;;;2.30;1.25;;;22.80;55.20;;;;;;4926175;28;95708;-63
2021/09/01 03:31:16;;;;;;;2.50;1.00;;;22.90;56.20;;;;;;4917959;28;98481;-61
2021/09/01 03:33:47;;;;;;;2.25;1.45;;;23.00;55.30;;;;;;4918199;28;96057;-61
2021/09/01 03:36:17;;;;;;;1.20;1.08;;;23.10;54.50;;;;;;4924758;28;96220;-62
2021/09/01 03:38:47;;;;;;;2.65;1.70;;;23.20;55.20;;;;;;4927601;28;95277;-62
2021/09/01 03:41:18;;;;;;;;;;;23.30;54.70;;;;;;4925482;28;95255;-63
2021/09/01 03:43:49;;;;;;;2.20;1.57;;;23.40;54.40;;;;;;4926198;28;95844;-62
2021/09/01 03:46:18;;;;;;;5.05;1.48;;;23.50;54.00;;;;;;4922026;28;98537;-60
2021/09/01 03:48:49;;;;;;;2.53;1.35;;;23.50;53.90;;;;;;4921999;28;95993;-60
2021/09/01 03:51:21;;;;;;;2.53;1.63;;;23.60;51.50;;;;;;4921377;28;95664;-62
2021/09/01 03:53:51;;;;;;;2.20;1.42;;;23.60;51.90;;;;;;4921730;28;96330;-57
2021/09/01 03:56:22;;;;;;;;;;;23.60;51.70;;;;;;4923654;28;96156;-60
2021/09/01 03:58:52;;;;;;;1.40;1.30;;;23.60;50.90;;;;;;4919191;28;96348;-63
2021/09/01 04:01:23;;;;;;;;;;;23.60;51.10;;;;;;4919480;28;98542;-63
2021/09/01 04:03:54;;;;;;;3.72;1.38;;;23.60;52.10;;;;;;4925716;28;96106;-62
2021/09/01 04:06:26;;;;;;;2.15;1.27;;;23.60;52.20;;;;;;4936200;28;95905;-65
2021/09/01 04:08:56;;;;;;;;;;;23.70;51.60;;;;;;4939697;28;95645;-63
2021/09/01 04:11:27;;;;;;;2.05;1.50;;;23.70;51.90;;;;;;4929648;28;95836;-66
2021/09/01 04:13:58;;;;;;;1.38;1.27;;;23.70;51.50;;;;;;4928257;28;96083;-64
2021/09/01 04:16:29;;;;;;;1.40;1.30;;;23.70;51.10;;;;;;4920720;28;96212;-65
2021/09/01 04:19:01;;;;;;;2.70;1.65;;;23.70;51.50;;;;;;4924632;28;95755;-65
2021/09/01 04:21:32;;;;;;;3.05;1.65;;;23.70;51.20;;;;;;4926788;28;95724;-63
2021/09/01 04:24:02;;;;;;;1.80;1.70;;;23.70;51.30;;;;;;4920456;28;98781;-67
2021/09/01 04:26:31;;;;;;;2.20;1.70;;;23.70;51.60;;;;;;4931076;28;95700;-66
2021/09/01 04:29:01;;;;;;;2.92;1.60;;;23.80;51.80;;;;;;4930152;28;95239;-66
2021/09/01 04:31:31;;;;;;;1.17;1.08;;;23.80;51.90;;;;;;4927203;28;96263;-70
2021/09/01 04:34:01;;;;;;;1.50;1.40;;;23.90;52.20;;;;;;4927803;28;96124;-66
2021/09/01 04:36:31;;;;;;;2.03;1.83;;;23.80;51.80;;;;;;4928865;28;96318;-64
2021/09/01 04:39:01;;;;;;;1.85;1.75;;;23.90;49.30;;;;;;4925164;28;95922;-63
2021/09/01 04:41:32;;;;;;;5.00;1.70;;;23.80;48.20;;;;;;4925062;28;95847;-62
2021/09/01 04:44:03;;;;;;;4.60;1.55;;;23.70;50.40;;;;;;4925533;28;96692;-62
2021/09/01 04:46:33;;;;;;;2.10;1.85;;;23.70;50.70;;;;;;4921735;28;99567;-62
2021/09/01 04:49:03;;;;;;;2.60;1.98;;;23.50;48.80;;;;;;4926253;28;96085;-62
2021/09/01 04:51:33;;;;;;;;;;;23.40;50.00;;;;;;4924834;28;95792;-63
2021/09/01 04:54:05;;;;;;;3.35;2.08;;;23.30;46.50;;;;;;4924097;28;95854;-61
2021/09/01 04:56:36;;;;;;;3.17;2.30;;;23.20;47.20;;;;;;4921883;28;95845;-64
2021/09/01 04:59:07;;;;;;;7.20;2.72;;;23.10;48.00;;;;;;4913458;28;98149;-63
2021/09/01 05:01:38;;;;;;;;;;;23.10;47.30;;;;;;4917607;28;96465;-61
2021/09/01 05:04:10;;;;;;;3.80;2.42;;;23.10;49.10;;;;;;4925679;28;96195;-60
2021/09/01 05:06:40;;;;;;;5.93;2.95;;;23.10;50.40;;;;;;4924607;28;95912;-62
2021/09/01 05:09:11;;;;;;;5.68;3.35;;;23.10;50.30;;;;;;4926550;28;95812;-62
2021/09/01 05:11:41;;;;;;;19.85;3.97;;;23.00;50.10;;;;;;4923403;28;95959;-60
2021/09/01 05:14:11;;;;;;;3.40;2.78;;;23.00;50.50;;;;;;4915588;28;95867;-62
2021/09/01 05:16:42;;;;;;;;;;;23.00;50.00;;;;;;4915859;28;96133;-61
2021/09/01 05:19:12;;;;;;;4.32;3.55;;;22.90;51.10;;;;;;4921178;28;96484;-61
2021/09/01 05:21:46;;;;;;;;;;;22.90;49.60;;;;;;4923800;28;95736;-62
2021/09/01 05:24:37;;;;;;;3.25;2.95;;;22.90;49.90;;;;;;4923675;28;96938;-62
2021/09/01 05:27:22;;;;;;;5.55;2.78;;;22.80;48.70;;;;;;4939099;28;95822;-63
2021/09/01 05:29:53;;;;;;;4.68;3.17;;;22.80;49.20;;;;;;4918530;28;95915;-62
2021/09/01 05:32:27;;;;;;;4.65;2.65;;;22.70;48.90;;;;;;4916972;28;95817;-59
2021/09/01 05:35:01;;;;;;;4.35;2.90;;;22.80;48.50;;;;;;4923401;28;96463;-63
2021/09/01 05:37:31;;;;;;;3.55;2.78;;;22.70;49.90;;;;;;4922196;28;95998;-58
2021/09/01 05:40:03;;;;;;;4.65;2.92;;;22.70;50.20;;;;;;4923547;28;96445;-62
2021/09/01 05:42:39;;;;;;;2.72;2.08;;;22.60;50.10;;;;;;4924084;28;96710;-57
2021/09/01 05:45:12;;;;;;;3.83;2.75;;;22.60;50.80;;;;;;4916051;28;95899;-63
2021/09/01 05:47:45;;;;;;;2.78;2.45;;;22.70;50.50;;;;;;4919063;28;95957;-63
2021/09/01 05:50:19;;;;;;;5.32;2.58;;;22.60;51.30;;;;;;4923278;28;95527;-58
2021/09/01 05:52:50;;;;;;;2.42;2.17;;;22.60;50.10;;;;;;4924958;28;96200;-64
2021/09/01 05:55:21;;;;;;;3.17;2.10;;;22.60;51.30;;;;;;4922621;28;96851;-63
2021/09/01 05:57:56;;;;;;;3.33;2.13;;;22.60;51.00;;;;;;4918343;28;96059;-62
2021/09/01 06:00:35;;;;;;;4.38;2.20;;;22.60;51.80;;;;;;4909257;28;96511;-58
2021/09/01 06:03:16;;;;;;;2.38;2.17;;;22.60;52.20;;;;;;4916207;28;96726;-57
2021/09/01 06:05:49;;;;;;;;;;;22.60;51.10;;;;;;4920740;28;95883;-63
2021/09/01 06:08:30;;;;;;;3.42;2.40;;;22.60;51.60;;;;;;4923735;28;96468;-62
2021/09/01 06:11:03;;;;;;;3.30;2.28;;;22.50;50.60;;;;;;4922271;28;96287;-56
2021/09/01 06:13:33;;;;;;;3.78;2.50;;;22.50;51.40;;;;;;4921810;28;95706;-62
2021/09/01 06:16:05;;;;;;;2.70;1.95;;;22.50;51.40;;;;;;4917522;28;96777;-63
2021/09/01 06:18:36;;;;;;;3.47;2.38;;;22.50;51.00;;;;;;4919322;28;95901;-61
2021/09/01 06:21:06;;;;;;;2.92;2.63;;;22.50;51.30;;;;;;4917585;28;97607;-62
2021/09/01 06:23:36;;;;;;;4.13;1.90;;;22.50;50.20;;;;;;4921433;28;95317;-56
2021/09/01 06:26:05;;;;;;;3.45;2.80;;;22.40;51.20;;;;;;4921304;28;96775;-61
2021/09/01 06:28:35;;;;;;;2.45;2.20;;;22.40;51.80;;;;;;4921790;28;95751;-61
2021/09/01 06:31:06;;;;;;;3.88;2.28;;;22.40;50.90;;;;;;4914940;28;96067;-55
2021/09/01 06:33:44;;;;;;;2.28;1.80;;;22.40;51.80;;;;;;4920354;28;97180;-57
2021/09/01 06:36:18;;;;;;;3.30;2.20;;;22.40;51.70;;;;;;4915687;28;96517;-55
2021/09/01 06:38:48;;;;;;;3.10;1.75;;;22.30;51.20;;;;;;4918255;28;96255;-61
2021/09/01 06:41:19;;;;;;;4.43;1.85;;;22.30;51.80;;;;;;4921261;28;96002;-58
2021/09/01 06:43:51;;;;;;;2.97;2.33;;;22.30;52.50;;;;;;4921401;28;96006;-57
2021/09/01 06:46:21;;;;;;;2.28;2.10;;;22.30;51.70;;;;;;4933936;28;95899;-60
2021/09/01 06:48:51;;;;;;;1.95;1.83;;;22.30;51.90;;;;;;4923857;28;96118;-62
2021/09/01 06:51:22;;;;;;;3.28;1.95;;;22.30;52.60;;;;;;4923044;28;95846;-57
2021/09/01 06:53:53;;;;;;;4.10;1.83;;;22.30;51.40;;;;;;4918811;28;95799;-61
2021/09/01 06:56:24;;;;;;;2.50;2.30;;;22.30;51.70;;;;;;4921782;28;98531;-60
2021/09/01 06:58:58;;;;;;;3.50;2.50;;;22.20;52.10;;;;;;4914687;28;96140;-56
2021/09/01 07:01:29;;;;;;;;;;;22.30;52.70;;;;;;4919172;28;95880;-60
2021/09/01 07:04:01;;;;;;;4.03;2.08;;;22.20;52.80;;;;;;4925613;28;96464;-61
2021/09/01 07:06:33;;;;;;;2.10;1.90;;;22.20;52.60;;;;;;4923930;28;95925;-58
2021/09/01 07:09:03;;;;;;;3.28;1.83;;;22.20;53.30;;;;;;4934624;28;97435;-63
2021/09/01 07:11:34;;;;;;;2.97;2.00;;;22.20;53.70;;;;;;4923119;28;95760;-59
2021/09/01 07:14:06;;;;;;;;;;;22.20;53.00;;;;;;4931093;28;96457;-60
2021/09/01 07:16:36;;;;;;;4.80;2.33;;;22.20;53.00;;;;;;4919790;28;97108;-59
2021/09/01 07:19:07;;;;;;;;;;;22.10;53.60;;;;;;4921024;28;97126;-64
2021/09/01 07:21:36;;;;;;;2.65;2.25;;;22.10;53.10;;;;;;4924504;28;95752;-60
2021/09/01 07:24:06;;;;;;;3.78;2.10;;;22.10;53.30;;;;;;4923260;28;95226;-59
2021/09/01 07:26:36;;;;;;;3.03;2.08;;;22.00;53.80;;;;;;4918206;28;96550;-59
2021/09/01 07:29:09;;;;;;;2.80;2.08;;;22.00;53.70;;;;;;4922498;28;96651;-59
2021/09/01 07:31:42;;;;;;;2.08;1.88;;;22.00;53.90;;;;;;4918466;28;96042;-57
2021/09/01 07:34:15;;;;;;;2.97;1.90;;;22.00;54.10;;;;;;4921992;28;95421;-59
2021/09/01 07:36:46;;;;;;;4.30;2.35;;;21.90;54.80;;;;;;4921262;28;97938;-57
2021/09/01 07:39:17;;;;;;;;;;;21.90;54.30;;;;;;4924158;28;96326;-58
2021/09/01 07:41:48;;;;;;;4.10;2.05;;;21.80;55.10;;;;;;4923362;28;96381;-60
2021/09/01 07:44:19;;;;;;;4.07;2.15;;;21.90;55.30;;;;;;4923144;28;96094;-60
2021/09/01 07:46:50;;;;;;;11.40;2.55;;;21.80;55.70;;;;;;4919251;28;97528;-62
2021/09/01 07:49:21;;;;;;;5.75;2.35;;;21.80;56.30;;;;;;4924594;28;96055;-61
2021/09/01 07:51:52;;;;;;;2.78;2.08;;;21.70;56.40;;;;;;4921152;28;95980;-56
2021/09/01 07:54:22;;;;;;;4.23;2.20;;;21.70;56.60;;;;;;4923448;28;95940;-57
2021/09/01 07:56:54;;;;;;;7.35;2.10;;;21.60;56.90;;;;;;4920538;28;95887;-59
2021/09/01 07:59:25;;;;;;;6.03;2.20;;;21.50;57.30;;;;;;4909417;28;96042;-59
2021/09/01 08:01:55;;;;;;;2.20;2.00;;;21.50;57.70;;;;;;4915262;28;98344;-58
2021/09/01 08:04:27;;;;;;;7.53;3.00;;;21.40;57.40;;;;;;4938916;28;95841;-59
2021/09/01 08:06:57;;;;;;;;;;;21.30;57.80;;;;;;4924733;28;96389;-60
2021/09/01 08:09:27;;;;;;;3.60;2.40;;;21.10;58.20;;;;;;4924595;28;96140;-61
2021/09/01 08:11:57;;;;;;;5.72;2.90;;;21.10;58.60;;;;;;4922939;28;96505;-60
2021/09/01 08:14:27;;;;;;;5.13;3.00;;;21.00;58.90;;;;;;4924262;28;95594;-61
2021/09/01 08:17:00;;;;;;;3.08;2.25;;;20.90;58.90;;;;;;4915529;28;95799;-60
2021/09/01 08:19:30;;;;;;;4.72;2.67;;;20.80;59.40;;;;;;4922460;28;95727;-60
2021/09/01 08:22:01;;;;;;;6.10;3.05;;;20.80;59.20;;;;;;4924993;28;95912;-61
2021/09/01 08:24:31;;;;;;;5.22;2.63;;;20.70;59.40;;;;;;4923441;28;95963;-60
2021/09/01 08:27:03;;;;;;;4.10;2.63;;;20.60;59.70;;;;;;4922793;28;97143;-61
2021/09/01 08:29:35;;;;;;;5.30;2.80;;;20.50;60.00;;;;;;4922711;28;96132;-61
2021/09/01 08:32:06;;;;;;;3.88;2.45;;;20.40;60.60;;;;;;4916496;28;95976;-63
2021/09/01 08:34:37;;;;;;;4.10;2.42;;;20.30;60.90;;;;;;4918680;28;97063;-59
2021/09/01 08:37:08;;;;;;;5.38;2.50;;;20.30;60.70;;;;;;4920995;28;96326;-60
2021/09/01 08:39:38;;;;;;;5.38;3.00;;;20.30;61.00;;;;;;4924137;28;95387;-59
2021/09/01 08:42:08;;;;;;;3.50;2.58;;;20.30;61.10;;;;;;4924186;28;95718;-60
2021/09/01 08:44:40;;;;;;;6.80;3.28;;;20.40;61.30;;;;;;4924284;28;95464;-57
2021/09/01 08:47:14;;;;;;;9.88;3.67;;;20.30;61.60;;;;;;4919399;28;96072;-60
2021/09/01 08:49:47;;;;;;;8.43;3.63;;;20.20;61.30;;;;;;4918021;28;95993;-64
2021/09/01 08:52:18;;;;;;;9.35;3.70;;;20.10;61.80;;;;;;4920566;28;95772;-63
2021/09/01 08:54:49;;;;;;;8.35;4.15;;;20.00;62.10;;;;;;4921927;28;95953;-58
2021/09/01 08:57:20;;;;;;;7.82;3.95;;;19.90;62.20;;;;;;4920327;28;96014;-57
2021/09/01 08:59:51;;;;;;;7.60;3.28;;;19.80;62.70;;;;;;4913068;28;96688;-63
2021/09/01 09:02:29;;;;;;;7.13;3.92;;;19.80;62.80;;;;;;4919215;28;95838;-66
2021/09/01 09:05:11;;;;;;;8.68;4.40;;;19.70;62.60;;;;;;4919845;28;95970;-64
2021/09/01 09:07:53;;;;;;;6.60;3.80;;;19.70;62.60;;;;;;4918881;28;96487;-64
2021/09/01 09:10:34;;;;;;;4.97;3.85;;;19.70;62.60;;;;;;4921012;28;98181;-56
2021/09/01 09:13:07;;;;;;;8.18;4.45;;;19.70;62.40;;;;;;4922548;28;96181;-63
2021/09/01 09:15:39;;;;;;;5.90;3.60;;;19.70;62.50;;;;;;4915709;28;95281;-58
2021/09/01 09:18:28;;;;;;;4.88;3.80;;;19.70;62.50;;;;;;4920188;28;95995;-64
2021/09/01 09:21:19;;;;;;;4.80;3.78;;;19.70;62.50;;;;;;4921530;28;95871;-64
2021/09/01 09:23:51;;;;;;;4.70;3.10;;;19.70;62.50;;;;;;4946613;28;96013;-63
2021/09/01 09:26:28;;;;;;;6.18;2.92;;;19.60;62.50;;;;;;4912437;28;95857;-64
2021/09/01 09:29:12;;;;;;;4.40;2.75;;;19.50;62.60;;;;;;4916404;28;96418;-64
2021/09/01 09:32:06;;;;;;;6.82;3.03;;;19.40;62.70;;;;;;4913822;28;95770;-63
2021/09/01 09:34:42;;;;;;;5.68;3.15;;;19.30;62.80;;;;;;4913354;28;95775;-64
2021/09/01 09:37:14;;;;;;;4.60;2.72;;;19.30;62.70;;;;;;4913929;28;95810;-63
2021/09/01 09:39:46;;;;;;;3.67;2.97;;;19.10;62.80;;;;;;4916414;28;96011;-56
2021/09/01 09:42:38;;;;;;;4.72;4.20;;;19.00;63.20;;;;;;4914714;28;95648;-64
2021/09/01 09:45:24;;;;;;;7.50;4.78;;;18.90;63.40;;;;;;4912297;28;95922;-63
2021/09/01 09:47:56;;;;;;;9.18;6.25;;;18.90;63.40;;;;;;4914887;28;95401;-55
2021/09/01 09:50:28;;;;;;;11.32;5.38;;;18.80;63.40;;;;;;4926199;28;95911;-56
2021/09/01 09:52:58;;;;;;;6.03;4.95;;;18.70;63.40;;;;;;4911897;28;96144;-58
2021/09/01 09:55:28;;;;;;;6.55;4.35;;;18.70;63.80;;;;;;4911574;28;95803;-57
2021/09/01 09:58:01;;;;;;;22.10;4.05;;;18.70;63.80;;;;;;4912014;28;95932;-60
2021/09/01 10:00:34;;;;;;;31.70;5.43;;;18.70;63.90;;;;;;4911946;28;95919;-57
2021/09/01 10:03:05;;;;;;;25.65;4.22;;;18.70;64.00;;;;;;4914401;28;95724;-59
2021/09/01 10:05:39;;;;;;;19.83;4.75;;;18.50;64.30;;;;;;4912818;28;96674;-57
2021/09/01 10:08:11;;;;;;;14.02;4.28;;;18.30;64.80;;;;;;4910959;28;97366;-57
2021/09/01 10:10:43;;;;;;;5.95;3.45;;;18.20;65.10;;;;;;4913245;28;95938;-58
2021/09/01 10:13:14;;;;;;;6.43;3.20;;;18.10;65.30;;;;;;4912802;28;95833;-57
2021/09/01 10:15:45;;;;;;;5.07;2.93;;;18.10;65.30;;;;;;4908794;28;96386;-57
2021/09/01 10:18:17;;;;;;;4.20;2.63;;;18.10;65.80;;;;;;4919835;28;95633;-58
2021/09/01 10:20:48;;;;;;;5.35;2.95;;;18.10;64.80;;;;;;4931401;28;98016;-57
2021/09/01 10:23:18;;;;;;;6.82;3.38;;;18.00;64.70;;;;;;4918179;28;96037;-58
2021/09/01 10:25:52;;;;;;;4.45;2.80;;;17.90;65.60;;;;;;4916213;28;95165;-58
2021/09/01 10:28:35;;;;;;;5.38;2.63;;;17.90;65.00;;;;;;4914486;28;95923;-58
2021/09/01 10:31:13;;;;;;;4.07;2.95;;;17.80;65.70;;;;;;4909694;28;95871;-57
2021/09/01 10:33:53;;;;;;;4.05;3.03;;;17.80;65.00;;;;;;4913562;28;96035;-57
2021/09/01 10:36:24;;;;;;;5.72;3.08;;;17.70;65.00;;;;;;4914868;28;95267;-58
2021/09/01 10:39:35;;;;;;;6.22;3.45;;;17.60;65.80;;;;;;4917307;28;95769;-60
2021/09/01 10:42:45;;;;;;;4.05;3.65;;;17.50;65.70;;;;;;4916396;28;96391;-58
2021/09/01 10:45:22;;;;;;;5.27;3.67;;;17.40;66.10;;;;;;4907558;28;95450;-59
2021/09/01 10:47:52;;;;;;;5.05;3.28;;;17.40;65.90;;;;;;4914608;28;96070;-57
2021/09/01 10:50:32;;;;;;;5.20;2.78;;;17.30;66.10;;;;;;4931094;28;95928;-59
2021/09/01 10:53:11;;;;;;;3.92;2.22;;;17.30;65.90;;;;;;4927475;28;95864;-58
2021/09/01 10:55:48;;;;;;;3.75;2.20;;;17.30;65.90;;;;;;4911556;28;97402;-57
2021/09/01 10:58:22;;;;;;;5.97;2.38;;;17.30;65.80;;;;;;4916690;28;96150;-57
2021/09/01 11:00:59;;;;;;;5.70;2.33;;;17.30;65.80;;;;;;4910257;28;96145;-56
2021/09/01 11:03:35;;;;;;;3.05;2.42;;;17.20;65.80;;;;;;4910206;28;95926;-58
2021/09/01 11:06:17;;;;;;;4.93;3.53;;;17.10;65.80;;;;;;4912948;28;95677;-58
2021/09/01 11:09:13;;;;;;;;;;;17.10;66.20;;;;;;4917457;28;95889;-57
2021/09/01 11:11:59;;;;;;;8.02;3.05;;;17.00;66.30;;;;;;4915769;28;95950;-56
2021/09/01 11:14:39;;;;;;;3.47;2.72;;;17.00;66.50;;;;;;4911083;28;96614;-59
2021/09/01 11:17:13;;;;;;;5.00;2.72;;;17.00;66.70;;;;;;4916182;28;95560;-58
2021/09/01 11:19:49;;;;;;;3.92;2.75;;;16.90;66.50;;;;;;4913183;28;95872;-57
2021/09/01 11:22:24;;;;;;;4.80;2.97;;;16.90;66.60;;;;;;4918391;28;95758;-57
2021/09/01 11:25:01;;;;;;;11.30;4.05;;;16.90;66.60;;;;;;4918177;28;95891;-58
2021/09/01 11:27:34;;;;;;;3.67;2.97;;;16.80;66.70;;;;;;4915511;28;96019;-58
2021/09/01 11:30:11;;;;;;;3.10;2.65;;;16.80;66.70;;;;;;4915928;28;95278;-58
2021/09/01 11:32:43;;;;;;;4.30;2.83;;;16.70;66.80;;;;;;4915595;28;95555;-58
2021/09/01 11:35:25;;;;;;;3.42;2.58;;;16.70;66.80;;;;;;4916552;28;96597;-57
2021/09/01 11:38:06;;;;;;;6.40;2.75;;;16.70;66.50;;;;;;4912014;28;95867;-57
2021/09/01 11:40:43;;;;;;;3.42;2.30;;;16.60;66.70;;;;;;4913912;28;95719;-59
2021/09/01 11:43:21;;;;;;;4.45;2.47;;;16.60;66.70;;;;;;4913851;28;95852;-58
2021/09/01 11:45:52;;;;;;;3.85;2.45;;;16.60;66.90;;;;;;4913556;28;95906;-59
2021/09/01 11:48:23;;;;;;;2.85;2.50;;;16.50;66.90;;;;;;4916203;28;97171;-58
2021/09/01 11:50:54;;;;;;;4.03;2.65;;;16.50;67.10;;;;;;4916300;28;95681;-58
2021/09/01 11:53:44;;;;;;;4.93;2.42;;;16.50;67.10;;;;;;4917943;28;95747;-57
2021/09/01 11:56:16;;;;;;;3.75;2.67;;;16.40;67.30;;;;;;4914094;28;95911;-57
2021/09/01 11:58:58;;;;;;;2.95;2.65;;;16.30;67.30;;;;;;4911669;28;100651;-56
2021/09/01 12:01:32;;;;;;;3.15;2.30;;;16.30;67.20;;;;;;4911301;28;95874;-58
2021/09/01 12:04:04;;;;;;;4.05;2.67;;;16.20;67.30;;;;;;4913286;28;95753;-58
2021/09/01 12:07:00;;;;;;;5.60;3.10;;;16.20;67.60;;;;;;4928162;28;96080;-60
2021/09/01 12:09:30;;;;;;;4.18;2.72;;;16.10;67.40;;;;;;4916246;28;95672;-56
2021/09/01 12:12:03;;;;;;;6.75;3.10;;;16.00;67.80;;;;;;4912148;28;95653;-58
2021/09/01 12:14:35;;;;;;;4.65;2.65;;;16.10;67.90;;;;;;4930643;28;96249;-57
2021/09/01 12:17:18;;;;;;;3.60;2.20;;;16.00;68.20;;;;;;4910348;28;95756;-56
2021/09/01 12:19:55;;;;;;;5.97;2.60;;;16.00;68.30;;;;;;4911981;28;96003;-56
2021/09/01 12:22:34;;;;;;;4.78;2.60;;;15.90;67.80;;;;;;4914920;28;95549;-58
2021/09/01 12:25:07;;;;;;;6.05;2.47;;;15.90;68.10;;;;;;4917913;28;95989;-58
2021/09/01 12:27:40;;;;;;;4.68;2.40;;;15.80;68.50;;;;;;4911186;28;96248;-57
2021/09/01 12:30:12;;;;;;;5.07;2.92;;;15.80;68.90;;;;;;4911434;28;95980;-57
2021/09/01 12:32:42;;;;;;;4.28;2.42;;;15.80;68.60;;;;;;4912428;28;95568;-59
2021/09/01 12:35:17;;;;;;;2.85;1.67;;;15.80;68.40;;;;;;4931979;28;97453;-56
2021/09/01 12:38:00;;;;;;;3.75;2.58;;;15.90;68.30;;;;;;4925079;28;97136;-58
2021/09/01 12:40:32;;;;;;;5.57;2.45;;;15.90;68.40;;;;;;4925565;28;96979;-59
2021/09/01 12:43:10;;;;;;;4.50;2.38;;;15.80;68.50;;;;;;4919818;28;95937;-55
2021/09/01 12:45:44;;;;;;;2.40;1.60;;;15.90;68.20;;;;;;4916809;28;96910;-57
2021/09/01 12:48:18;;;;;;;4.70;1.77;;;16.00;68.10;;;;;;4924607;28;95851;-58
2021/09/01 12:50:51;;;;;;;3.05;1.83;;;16.10;68.00;;;;;;4927661;28;96024;-56
2021/09/01 12:53:23;;;;;;;2.42;1.73;;;16.10;67.90;;;;;;4926236;28;95511;-58
2021/09/01 12:55:59;;;;;;;4.13;1.73;;;16.20;67.60;;;;;;4927887;28;95521;-59
2021/09/01 12:58:30;;;;;;;2.15;1.48;;;16.30;67.20;;;;;;4918080;28;95502;-57
2021/09/01 13:01:02;;;;;;;;;;;16.30;67.00;;;;;;4915325;28;96339;-59
2021/09/01 13:03:33;;;;;;;5.30;1.80;;;16.40;67.00;;;;;;4928198;28;96537;-59
2021/09/01 13:06:06;;;;;;;1.85;1.30;;;16.50;66.60;;;;;;4926502;28;95713;-59
2021/09/01 13:08:39;;;;;;;3.17;1.35;;;16.60;66.60;;;;;;4924143;28;96165;-58
2021/09/01 13:11:09;;;;;;;1.80;1.30;;;16.70;66.10;;;;;;4925529;28;95723;-58
2021/09/01 13:13:39;;;;;;;2.00;1.55;;;16.70;65.10;;;;;;4925473;28;96101;-58
2021/09/01 13:16:09;;;;;;;2.42;1.70;;;16.90;65.40;;;;;;4918097;28;95704;-57
2021/09/01 13:18:42;;;;;;;2.58;1.48;;;16.90;65.30;;;;;;4923893;28;98935;-58
2021/09/01 13:21:12;;;;;;;3.75;1.67;;;17.00;65.10;;;;;;4926482;28;96383;-59
2021/09/01 13:23:43;;;;;;;2.40;2.05;;;17.00;64.70;;;;;;4926726;28;95718;-59